createdAt,value
2018-12-13T00:00:29.959Z,2.77
2018-12-13T00:03:04.490Z,2.23
2018-12-13T00:05:38.805Z,1.97
2018-12-13T00:08:13.668Z,2.80
2018-12-13T00:10:48.194Z,2.87
2018-12-13T00:13:22.682Z,2.43
2018-12-13T00:15:57.144Z,2.10
2018-12-13T00:18:32.070Z,2.20
2018-12-13T00:21:07.176Z,2.20
2018-12-13T00:23:42.536Z,2.30
2018-12-13T00:26:16.820Z,2.37
2018-12-13T00:28:51.274Z,1.90
2018-12-13T00:31:25.882Z,1.90
2018-12-13T00:34:00.750Z,1.90
2018-12-13T00:36:39.720Z,2.00
2018-12-13T00:39:11.612Z,2.00
2018-12-13T00:41:46.044Z,2.17
2018-12-13T00:44:20.449Z,2.00
2018-12-13T00:46:55.449Z,2.33
2018-12-13T00:49:29.926Z,2.87
2018-12-13T00:52:04.516Z,2.30
2018-12-13T00:54:39.349Z,2.20
2018-12-13T00:57:14.174Z,1.93
2018-12-13T00:59:48.922Z,2.10
2018-12-13T01:02:23.469Z,1.37
2018-12-13T01:04:58.048Z,1.70
2018-12-13T01:07:32.786Z,1.83
2018-12-13T01:10:07.623Z,1.77
2018-12-13T01:12:42.547Z,1.70
2018-12-13T01:15:17.287Z,1.77
2018-12-13T01:17:51.601Z,2.20
2018-12-13T01:20:26.416Z,1.90
2018-12-13T01:23:00.855Z,1.33
2018-12-13T01:25:35.378Z,2.13
2018-12-13T01:28:09.622Z,1.60
2018-12-13T01:30:44.517Z,1.47
2018-12-13T01:33:19.355Z,1.60
2018-12-13T01:35:53.835Z,1.50
2018-12-13T01:38:28.066Z,1.70
2018-12-13T01:41:03.125Z,1.60
2018-12-13T01:43:38.042Z,2.00
2018-12-13T01:46:12.782Z,2.10
2018-12-13T01:48:47.628Z,1.97
2018-12-13T01:51:22.551Z,1.50
2018-12-13T01:53:57.743Z,1.70
2018-12-13T01:56:32.094Z,1.40
2018-12-13T01:59:07.041Z,1.70
2018-12-13T02:01:41.871Z,1.57
2018-12-13T02:04:16.240Z,1.50
2018-12-13T02:06:50.577Z,1.77
2018-12-13T02:09:25.464Z,1.53
2018-12-13T02:11:59.957Z,2.00
2018-12-13T02:14:34.690Z,1.50
2018-12-13T02:17:09.600Z,1.50
2018-12-13T02:19:44.086Z,1.30
2018-12-13T02:22:18.453Z,1.83
2018-12-13T02:24:53.374Z,1.20
2018-12-13T02:27:28.094Z,1.50
2018-12-13T02:30:02.533Z,1.80
2018-12-13T02:32:36.990Z,1.40
2018-12-13T02:35:11.638Z,1.30
2018-12-13T02:37:46.316Z,1.50
2018-12-13T02:40:20.542Z,1.43
2018-12-13T02:42:55.163Z,1.00
2018-12-13T02:45:29.502Z,1.50
2018-12-13T02:48:03.851Z,1.53
2018-12-13T02:50:38.724Z,1.30
2018-12-13T02:53:13.228Z,1.60
2018-12-13T02:55:47.824Z,1.67
2018-12-13T02:58:22.997Z,1.30
2018-12-13T03:00:57.715Z,1.53
2018-12-13T03:03:32.452Z,1.30
2018-12-13T03:06:06.805Z,1.53
2018-12-13T03:08:41.556Z,1.07
2018-12-13T03:11:16.037Z,1.37
2018-12-13T03:13:50.357Z,1.00
2018-12-13T03:16:24.852Z,1.50
2018-12-13T03:18:59.336Z,1.40
2018-12-13T03:21:34.226Z,1.30
2018-12-13T03:24:08.708Z,1.30
2018-12-13T03:26:43.191Z,1.20
2018-12-13T03:29:18.105Z,1.30
2018-12-13T03:31:52.927Z,1.40
2018-12-13T03:34:27.757Z,1.47
2018-12-13T03:37:02.595Z,1.23
2018-12-13T03:39:37.415Z,1.30
2018-12-13T03:42:12.246Z,1.23
2018-12-13T03:44:47.116Z,1.47
2018-12-13T03:47:21.821Z,1.20
2018-12-13T03:49:56.739Z,1.23
2018-12-13T03:52:31.575Z,1.20
2018-12-13T03:55:06.306Z,1.80
2018-12-13T03:57:41.237Z,1.53
2018-12-13T04:00:16.066Z,2.10
2018-12-13T04:02:50.785Z,1.90
2018-12-13T04:05:25.091Z,1.40
2018-12-13T04:07:59.775Z,1.80
2018-12-13T04:10:34.479Z,1.13
2018-12-13T04:13:08.981Z,1.30
2018-12-13T04:15:43.810Z,1.13
2018-12-13T04:18:18.336Z,1.37
2018-12-13T04:20:52.879Z,1.17
2018-12-13T04:23:27.592Z,1.50
2018-12-13T04:26:02.399Z,1.20
2018-12-13T04:28:36.971Z,1.20
2018-12-13T04:31:11.389Z,1.50
2018-12-13T04:33:45.732Z,0.80
2018-12-13T04:36:20.139Z,1.33
2018-12-13T04:38:54.630Z,1.43
2018-12-13T04:41:29.265Z,1.10
2018-12-13T04:44:03.647Z,1.30
2018-12-13T04:46:38.692Z,1.00
2018-12-13T04:49:13.371Z,1.00
2018-12-13T04:51:48.114Z,1.10
2018-12-13T04:54:22.574Z,1.07
2018-12-13T04:56:57.002Z,1.40
2018-12-13T04:59:31.653Z,1.10
2018-12-13T05:02:06.181Z,1.40
2018-12-13T05:04:41.177Z,1.20
2018-12-13T05:07:16.006Z,0.80
2018-12-13T05:09:50.577Z,1.00
2018-12-13T05:12:24.971Z,1.10
2018-12-13T05:14:59.683Z,0.90
2018-12-13T05:17:34.731Z,1.07
2018-12-13T05:20:09.076Z,1.00
2018-12-13T05:22:43.860Z,0.93
2018-12-13T05:25:18.226Z,0.90
2018-12-13T05:27:52.825Z,1.10
2018-12-13T05:30:27.750Z,1.20
2018-12-13T05:33:03.097Z,1.00
2018-12-13T05:35:37.451Z,1.20
2018-12-13T05:38:12.024Z,1.07
2018-12-13T05:40:46.974Z,1.27
2018-12-13T05:43:22.515Z,1.10
2018-12-13T05:45:56.903Z,1.50
2018-12-13T05:48:31.470Z,0.97
2018-12-13T05:51:05.772Z,1.37
2018-12-13T05:53:40.116Z,1.20
2018-12-13T05:56:14.812Z,1.03
2018-12-13T05:58:49.285Z,0.73
2018-12-13T06:01:23.773Z,1.30
2018-12-13T06:03:58.488Z,0.90
2018-12-13T06:06:33.446Z,0.83
2018-12-13T06:09:08.031Z,1.03
2018-12-13T06:11:43.169Z,0.63
2018-12-13T06:14:18.026Z,0.80
2018-12-13T06:16:52.732Z,1.10
2018-12-13T06:19:27.684Z,1.10
2018-12-13T06:22:02.401Z,1.27
2018-12-13T06:24:37.216Z,1.07
2018-12-13T06:27:11.909Z,1.20
2018-12-13T06:29:48.995Z,1.20
2018-12-13T06:32:22.612Z,1.53
2018-12-13T06:34:57.266Z,0.90
2018-12-13T06:37:31.765Z,1.20
2018-12-13T06:40:06.922Z,1.00
2018-12-13T06:42:41.466Z,1.30
2018-12-13T06:45:15.811Z,0.93
2018-12-13T06:47:50.198Z,0.93
2018-12-13T06:50:24.735Z,1.20
2018-12-13T06:52:59.237Z,1.10
2018-12-13T06:55:33.974Z,0.90
2018-12-13T06:58:08.882Z,0.80
2018-12-13T07:00:43.708Z,1.03
2018-12-13T07:03:18.274Z,1.03
2018-12-13T07:05:52.620Z,1.07
2018-12-13T07:08:27.318Z,1.30
2018-12-13T07:11:01.940Z,1.47
2018-12-13T07:13:36.659Z,1.33
2018-12-13T07:16:11.381Z,2.40
2018-12-13T07:18:46.313Z,1.87
2018-12-13T07:21:21.041Z,2.10
2018-12-13T07:23:55.876Z,3.53
2018-12-13T07:26:30.120Z,1.67
2018-12-13T07:29:04.785Z,2.00
2018-12-13T07:31:39.200Z,2.07
2018-12-13T07:34:14.685Z,1.30
2018-12-13T07:36:49.416Z,1.73
2018-12-13T07:39:23.969Z,1.60
2018-12-13T07:41:59.174Z,1.23
2018-12-13T07:44:33.989Z,1.60
2018-12-13T07:47:08.870Z,1.43
2018-12-13T07:49:43.636Z,2.07
2018-12-13T07:52:18.307Z,1.40
2018-12-13T07:54:53.202Z,0.83
2018-12-13T07:57:27.560Z,1.27
2018-12-13T08:00:02.260Z,1.00
2018-12-13T08:02:36.531Z,0.90
2018-12-13T08:05:11.411Z,1.80
2018-12-13T08:07:45.760Z,1.10
2018-12-13T08:10:20.368Z,1.17
2018-12-13T08:12:55.079Z,1.00
2018-12-13T08:15:29.440Z,1.00
2018-12-13T08:18:04.733Z,1.13
2018-12-13T08:20:39.542Z,1.10
2018-12-13T08:23:13.866Z,0.83
2018-12-13T08:25:48.205Z,1.13
2018-12-13T08:28:22.974Z,1.10
2018-12-13T08:30:57.755Z,0.60
2018-12-13T08:33:32.101Z,1.00
2018-12-13T08:36:06.820Z,0.80
2018-12-13T08:38:41.023Z,1.00
2018-12-13T08:41:15.879Z,0.83
2018-12-13T08:43:50.730Z,1.30
2018-12-13T08:46:25.119Z,0.90
2018-12-13T08:48:59.789Z,1.13
2018-12-13T08:51:34.109Z,1.13
2018-12-13T08:54:08.474Z,0.70
2018-12-13T08:56:42.697Z,1.13
2018-12-13T08:59:17.220Z,1.00
2018-12-13T09:01:52.812Z,0.90
2018-12-13T09:04:27.857Z,0.93
2018-12-13T09:07:02.390Z,1.10
2018-12-13T09:09:36.962Z,1.70
2018-12-13T09:12:11.293Z,1.53
2018-12-13T09:14:46.061Z,1.07
2018-12-13T09:17:20.501Z,1.33
2018-12-13T09:19:54.977Z,1.13
2018-12-13T09:22:29.560Z,1.10
2018-12-13T09:25:05.223Z,1.30
2018-12-13T09:27:39.906Z,1.10
2018-12-13T09:30:14.662Z,1.40
2018-12-13T09:32:49.490Z,1.07
2018-12-13T09:35:24.278Z,1.03
2018-12-13T09:37:58.777Z,1.00
2018-12-13T09:40:33.269Z,1.73
2018-12-13T09:43:08.163Z,1.37
2018-12-13T09:45:42.670Z,1.67
2018-12-13T09:48:17.494Z,1.03
2018-12-13T09:50:52.940Z,1.10
2018-12-13T09:53:27.358Z,1.20
2018-12-13T09:56:01.926Z,1.20
2018-12-13T09:58:36.446Z,1.40
2018-12-13T10:01:11.188Z,1.50
2018-12-13T10:03:46.074Z,1.50
2018-12-13T10:06:20.442Z,0.90
2018-12-13T10:08:55.261Z,1.20
2018-12-13T10:11:30.013Z,1.20
2018-12-13T10:14:04.319Z,1.57
2018-12-13T10:16:39.529Z,0.97
2018-12-13T10:19:14.586Z,1.27
2018-12-13T10:21:49.377Z,1.47
2018-12-13T10:24:23.885Z,1.17
2018-12-13T10:26:58.794Z,1.30
2018-12-13T10:29:33.285Z,1.33
2018-12-13T10:32:07.854Z,1.43
2018-12-13T10:34:42.352Z,1.10
2018-12-13T10:37:17.170Z,1.10
2018-12-13T10:39:51.690Z,0.83
2018-12-13T10:42:26.451Z,1.00
2018-12-13T10:45:00.945Z,1.17
2018-12-13T10:47:35.782Z,1.10
2018-12-13T10:50:10.140Z,1.17
2018-12-13T10:52:44.580Z,0.77
2018-12-13T10:55:19.112Z,1.90
2018-12-13T10:57:53.940Z,0.90
2018-12-13T11:00:33.988Z,0.90
2018-12-13T11:03:21.571Z,0.90
2018-12-13T11:05:55.765Z,1.00
2018-12-13T11:08:30.058Z,1.23
2018-12-13T11:11:04.620Z,0.87
2018-12-13T11:13:39.445Z,1.07
2018-12-13T11:16:13.754Z,1.00
2018-12-13T11:18:48.246Z,0.70
2018-12-13T11:21:22.906Z,1.00
2018-12-13T11:23:57.238Z,1.10
2018-12-13T11:26:32.457Z,1.13
2018-12-13T11:29:18.736Z,0.87
2018-12-13T11:31:53.754Z,0.60
2018-12-13T11:34:28.376Z,0.93
2018-12-13T11:37:02.736Z,0.97
2018-12-13T11:39:37.945Z,0.73
2018-12-13T11:42:12.527Z,0.80
2018-12-13T11:44:47.330Z,1.17
2018-12-13T11:47:22.414Z,0.73
2018-12-13T11:49:56.993Z,0.77
2018-12-13T11:52:31.531Z,0.90
2018-12-13T11:58:08.490Z,0.77
2018-12-13T12:00:43.042Z,1.00
2018-12-13T12:03:17.547Z,0.80
2018-12-13T12:05:52.005Z,0.90
2018-12-13T12:08:26.269Z,0.60
2018-12-13T12:11:01.091Z,0.90
2018-12-13T12:13:35.643Z,0.90
2018-12-13T12:16:10.312Z,0.83
2018-12-13T12:18:44.539Z,0.80
2018-12-13T12:21:19.801Z,0.77
2018-12-13T12:23:54.417Z,0.70
2018-12-13T12:26:29.203Z,0.70
2018-12-13T12:29:03.737Z,1.00
2018-12-13T12:31:38.853Z,0.70
2018-12-13T12:34:13.350Z,0.90
2018-12-13T12:36:47.610Z,0.87
2018-12-13T12:39:22.121Z,0.73
2018-12-13T12:41:56.917Z,0.60
2018-12-13T12:44:33.202Z,0.70
2018-12-13T12:47:07.823Z,0.90
2018-12-13T12:49:42.346Z,1.30
2018-12-13T12:52:16.870Z,0.80
2018-12-13T12:54:51.706Z,0.93
2018-12-13T12:57:26.479Z,1.00
2018-12-13T13:00:01.076Z,0.87
2018-12-13T13:02:35.653Z,0.77
2018-12-13T13:05:10.128Z,0.83
2018-12-13T13:07:44.477Z,0.90
2018-12-13T13:10:18.730Z,0.80
2018-12-13T13:12:53.576Z,0.80
2018-12-13T13:15:28.508Z,0.87
2018-12-13T13:18:03.372Z,1.10
2018-12-13T13:20:37.846Z,1.03
2018-12-13T13:23:12.330Z,0.90
2018-12-13T13:25:46.918Z,1.20
2018-12-13T13:28:21.414Z,0.73
2018-12-13T13:30:56.354Z,0.77
2018-12-13T13:33:30.784Z,0.70
2018-12-13T13:36:05.678Z,0.80
2018-12-13T13:38:40.350Z,0.77
2018-12-13T13:41:14.875Z,0.90
2018-12-13T13:43:49.224Z,1.33
2018-12-13T13:46:23.548Z,0.90
2018-12-13T13:48:58.157Z,1.10
2018-12-13T13:51:32.572Z,1.20
2018-12-13T13:54:07.261Z,1.30
2018-12-13T13:56:41.603Z,0.80
2018-12-13T13:59:15.920Z,0.97
2018-12-13T14:01:50.504Z,1.00
2018-12-13T14:04:24.974Z,0.80
2018-12-13T14:06:59.517Z,0.77
2018-12-13T14:09:37.970Z,0.90
2018-12-13T14:12:10.481Z,0.97
2018-12-13T14:14:44.905Z,0.70
2018-12-13T14:17:19.432Z,0.90
2018-12-13T14:19:58.643Z,0.67
2018-12-13T14:22:33.157Z,0.90
2018-12-13T14:25:07.553Z,0.80
2018-12-13T14:27:41.959Z,0.60
2018-12-13T14:30:16.650Z,0.70
2018-12-13T14:32:50.873Z,0.77
2018-12-13T14:35:25.572Z,0.80
2018-12-13T14:37:59.906Z,0.73
2018-12-13T14:40:34.236Z,0.90
2018-12-13T14:43:08.635Z,0.90
2018-12-13T14:45:42.983Z,0.80
2018-12-13T14:48:17.392Z,0.80
2018-12-13T14:50:51.625Z,0.93
2018-12-13T14:53:25.874Z,0.97
2018-12-13T14:56:00.632Z,0.60
2018-12-13T14:58:34.972Z,0.73
2018-12-13T15:01:09.335Z,0.80
2018-12-13T15:03:44.004Z,0.93
2018-12-13T15:06:18.346Z,1.00
2018-12-13T15:08:52.560Z,0.57
2018-12-13T15:11:26.945Z,0.87
2018-12-13T15:14:01.414Z,0.50
2018-12-13T15:16:36.013Z,0.70
2018-12-13T15:19:10.375Z,1.57
2018-12-13T15:21:44.627Z,0.70
2018-12-13T15:24:18.930Z,0.70
2018-12-13T15:26:53.186Z,0.70
2018-12-13T15:29:27.543Z,1.17
2018-12-13T15:32:02.150Z,1.57
2018-12-13T15:34:37.042Z,2.43
2018-12-13T15:37:11.391Z,3.03
2018-12-13T15:39:45.856Z,3.83
2018-12-13T15:42:20.210Z,4.17
2018-12-13T15:44:54.785Z,4.33
2018-12-13T15:47:29.443Z,4.30
2018-12-13T15:50:05.502Z,4.60
2018-12-13T15:52:40.275Z,3.40
2018-12-13T15:55:14.763Z,4.87
2018-12-13T15:57:49.683Z,4.83
2018-12-13T16:00:24.113Z,4.20
2018-12-13T16:02:58.599Z,3.47
2018-12-13T16:05:32.973Z,3.90
2018-12-13T16:08:07.881Z,4.97
2018-12-13T16:10:42.761Z,3.70
2018-12-13T16:13:17.378Z,4.37
2018-12-13T16:15:52.407Z,3.60
2018-12-13T16:18:26.729Z,3.90
2018-12-13T16:21:02.547Z,4.23
2018-12-13T16:23:37.583Z,4.30
2018-12-13T16:26:12.431Z,4.23
2018-12-13T16:28:46.828Z,3.87
2018-12-13T16:31:21.271Z,2.87
2018-12-13T16:33:55.686Z,3.97
2018-12-13T16:36:30.082Z,2.90
2018-12-13T16:39:07.822Z,2.90
2018-12-13T16:41:42.348Z,3.33
2018-12-13T16:44:16.797Z,3.77
2018-12-13T16:46:51.586Z,3.13
2018-12-13T16:49:26.506Z,3.23
2018-12-13T16:52:00.832Z,2.97
2018-12-13T16:54:35.870Z,2.93
2018-12-13T16:57:10.998Z,2.80
2018-12-13T16:59:45.835Z,3.40
2018-12-13T17:02:20.443Z,3.13
2018-12-13T17:04:54.867Z,2.30
2018-12-13T17:07:29.678Z,3.20
2018-12-13T17:10:05.669Z,2.23
2018-12-13T17:12:40.510Z,2.60
2018-12-13T17:15:14.730Z,2.47
2018-12-13T17:17:49.548Z,2.93
2018-12-13T17:20:23.910Z,2.67
2018-12-13T17:22:58.487Z,3.33
2018-12-13T17:25:33.299Z,2.10
2018-12-13T17:28:08.242Z,2.80
2018-12-13T17:30:42.519Z,2.60
2018-12-13T17:33:17.371Z,2.73
2018-12-13T17:35:52.229Z,2.10
2018-12-13T17:38:26.681Z,1.70
2018-12-13T17:41:01.270Z,2.50
2018-12-13T17:43:36.035Z,2.13
2018-12-13T17:46:10.508Z,1.77
2018-12-13T17:48:44.838Z,1.97
2018-12-13T17:51:19.586Z,1.70
2018-12-13T17:53:54.736Z,2.67
2018-12-13T17:56:29.052Z,1.63
2018-12-13T17:59:03.850Z,2.00
2018-12-13T18:01:38.348Z,1.77
2018-12-13T18:04:12.664Z,2.10
2018-12-13T18:06:47.476Z,1.77
2018-12-13T18:09:22.154Z,1.83
2018-12-13T18:11:56.507Z,1.97
2018-12-13T18:14:31.025Z,1.73
2018-12-13T18:17:05.370Z,2.10
2018-12-13T18:19:39.997Z,2.00
2018-12-13T18:22:14.796Z,1.77
2018-12-13T18:24:49.404Z,1.87
2018-12-13T18:27:23.677Z,1.67
2018-12-13T18:29:58.658Z,1.60
2018-12-13T18:32:32.890Z,1.60
2018-12-13T18:35:07.406Z,1.70
2018-12-13T18:37:42.474Z,1.70
2018-12-13T18:40:18.060Z,1.93
2018-12-13T18:42:52.757Z,1.20
2018-12-13T18:45:29.061Z,2.10
2018-12-13T18:48:03.780Z,1.60
2018-12-13T18:50:38.229Z,2.00
2018-12-13T18:53:12.624Z,1.20
2018-12-13T18:55:48.221Z,1.33
2018-12-13T18:58:23.004Z,1.30
2018-12-13T19:00:57.230Z,1.83
2018-12-13T19:03:31.625Z,1.43
2018-12-13T19:06:06.015Z,1.63
2018-12-13T19:08:40.671Z,1.47
2018-12-13T19:11:15.076Z,1.20
2018-12-13T19:13:50.169Z,1.50
2018-12-13T19:16:24.973Z,1.00
2018-12-13T19:18:59.517Z,1.07
2018-12-13T19:21:34.119Z,1.53
2018-12-13T19:24:09.557Z,1.60
2018-12-13T19:26:44.033Z,0.97
2018-12-13T19:29:18.635Z,1.20
2018-12-13T19:31:53.439Z,1.37
2018-12-13T19:34:27.798Z,1.57
2018-12-13T19:39:44.964Z,1.40
2018-12-13T19:42:14.625Z,1.30
2018-12-13T19:44:43.729Z,1.10
2018-12-13T19:47:18.109Z,1.67
2018-12-13T19:49:52.870Z,1.60
2018-12-13T19:52:27.789Z,1.00
2018-12-13T19:55:02.455Z,1.00
2018-12-13T19:57:36.998Z,0.93
2018-12-13T20:00:12.075Z,1.17
2018-12-13T20:02:46.800Z,1.40
2018-12-13T20:05:21.195Z,1.03
2018-12-13T20:07:56.201Z,1.30
2018-12-13T20:10:30.706Z,1.30
2018-12-13T20:13:05.603Z,1.13
2018-12-13T20:15:40.026Z,1.13
2018-12-13T20:18:14.804Z,1.30
2018-12-13T20:20:49.348Z,1.30
2018-12-13T20:23:23.696Z,1.50
2018-12-13T20:25:58.433Z,1.33
2018-12-13T20:28:32.916Z,1.40
2018-12-13T20:31:07.413Z,1.40
2018-12-13T20:33:42.357Z,1.20
2018-12-13T20:36:15.786Z,0.97
2018-12-13T20:38:50.542Z,1.27
2018-12-13T20:41:25.202Z,1.23
2018-12-13T20:44:00.314Z,1.30
2018-12-13T20:46:35.237Z,2.10
2018-12-13T20:49:09.684Z,1.67
2018-12-13T20:51:43.956Z,1.63
2018-12-13T20:54:18.984Z,1.73
2018-12-13T20:56:48.658Z,1.70
2018-12-13T20:59:18.300Z,1.40
2018-12-13T21:01:52.744Z,1.83
2018-12-13T21:04:27.279Z,1.23
2018-12-13T21:07:07.386Z,1.10
2018-12-13T21:09:42.171Z,1.63
2018-12-13T21:12:16.457Z,1.10
2018-12-13T21:14:50.872Z,1.50
2018-12-13T21:17:25.750Z,1.60
2018-12-13T21:20:00.648Z,0.97
2018-12-13T21:22:30.540Z,1.07
2018-12-13T21:24:59.230Z,1.20
2018-12-13T21:27:27.825Z,1.10
2018-12-13T21:29:56.423Z,1.30
2018-12-13T21:32:25.303Z,1.20
2018-12-13T21:34:54.066Z,1.60
2018-12-13T21:37:22.606Z,1.00
2018-12-13T21:39:51.770Z,1.60
2018-12-13T21:42:20.652Z,1.33
2018-12-13T21:44:49.340Z,1.20
2018-12-13T21:47:24.155Z,1.33
2018-12-13T21:49:58.878Z,1.47
2018-12-13T21:52:33.156Z,1.30
2018-12-13T21:55:07.955Z,1.20
2018-12-13T21:57:42.593Z,1.33
2018-12-13T22:00:17.494Z,1.10
2018-12-13T22:02:52.038Z,1.37
2018-12-13T22:05:26.648Z,1.40
2018-12-13T22:08:01.565Z,1.43
2018-12-13T22:10:36.036Z,1.10
2018-12-13T22:13:10.536Z,1.27
2018-12-13T22:15:44.744Z,1.30
2018-12-13T22:18:19.534Z,1.07
2018-12-13T22:20:54.038Z,1.07
2018-12-13T22:23:28.334Z,1.23
2018-12-13T22:26:02.846Z,0.90
2018-12-13T22:28:37.147Z,1.03
2018-12-13T22:31:11.654Z,1.07
2018-12-13T22:33:46.762Z,1.13
2018-12-13T22:36:22.150Z,1.70
2018-12-13T22:38:56.528Z,1.10
2018-12-13T22:41:31.156Z,1.30
2018-12-13T22:44:05.477Z,1.20
2018-12-13T22:46:39.824Z,1.37
2018-12-13T22:49:14.183Z,1.27
2018-12-13T22:51:48.632Z,1.20
2018-12-13T22:54:23.594Z,1.20
2018-12-13T22:56:58.186Z,1.20
2018-12-13T22:59:32.644Z,1.30
2018-12-13T23:02:07.105Z,1.10
2018-12-13T23:04:41.757Z,1.40
2018-12-13T23:07:16.348Z,1.03
2018-12-13T23:09:51.124Z,1.57
2018-12-13T23:12:25.554Z,1.37
2018-12-13T23:15:00.105Z,0.93
2018-12-13T23:17:36.677Z,0.97
2018-12-13T23:20:11.279Z,0.80
2018-12-13T23:22:45.601Z,1.10
2018-12-13T23:25:20.067Z,1.20
2018-12-13T23:27:54.561Z,1.23
2018-12-13T23:30:28.976Z,1.00
2018-12-13T23:33:03.241Z,1.20
2018-12-13T23:35:32.339Z,1.20
2018-12-13T23:38:07.442Z,0.73
2018-12-13T23:40:41.841Z,1.13
2018-12-13T23:43:16.181Z,1.30
2018-12-13T23:45:51.007Z,1.13
2018-12-13T23:48:25.353Z,1.13
2018-12-13T23:51:00.032Z,0.80
2018-12-13T23:53:34.528Z,0.93
2018-12-13T23:56:09.623Z,1.37
2018-12-13T23:58:44.545Z,0.90
